Time;durP1;ratioP1;P1;durP2;ratioP2;P2;SDS_P1;SDS_P2;PMS_P1;PMS_P2;Temp;Humidity;BMP_temperature;BMP_pressure;BME280_temperature;BME280_humidity;BME280_pressure;Samples;Min_cycle;Max_cycle;Signal;HPM_P1;HPM_P2
2023/02/27 00:00:48;;;;;;;14.73;13.30;;;-1.30;81.50;;;;;;4977506;28;20181;-88
2023/02/27 00:03:13;;;;;;;14.20;12.70;;;-1.30;81.40;;;;;;4994889;28;20194;-88
2023/02/27 00:05:41;;;;;;;14.37;13.07;;;-1.30;81.40;;;;;;4977305;28;20213;-88
2023/02/27 00:08:06;;;;;;;20.00;13.67;;;-1.40;81.40;;;;;;4977420;28;20187;-86
2023/02/27 00:10:32;;;;;;;13.63;12.33;;;-1.40;81.50;;;;;;4977307;28;20177;-87
2023/02/27 00:12:57;;;;;;;14.53;13.13;;;-1.40;81.60;;;;;;4977295;28;20202;-89
2023/02/27 00:15:23;;;;;;;15.60;14.00;;;-1.50;81.60;;;;;;4977249;28;20192;-87
2023/02/27 00:17:49;;;;;;;14.27;13.03;;;-1.50;81.60;;;;;;4977301;28;20675;-87
2023/02/27 00:20:17;;;;;;;15.17;13.67;;;-1.50;81.60;;;;;;4994846;28;20596;-87
2023/02/27 00:22:43;;;;;;;14.30;13.00;;;-1.60;81.30;;;;;;4977960;28;20203;-87
2023/02/27 00:25:10;;;;;;;14.60;13.20;;;-1.60;81.40;;;;;;4977571;28;20183;-87
2023/02/27 00:27:36;;;;;;;14.90;13.50;;;-1.60;81.50;;;;;;4977428;28;20199;-88
2023/02/27 00:30:05;;;;;;;14.63;13.23;;;-1.60;81.70;;;;;;4994592;28;20579;-88
2023/02/27 00:32:31;;;;;;;14.67;13.57;;;-1.70;81.70;;;;;;4977029;28;20573;-88
2023/02/27 00:34:56;;;;;;;14.77;13.50;;;-1.60;81.80;;;;;;4976916;28;20185;-87
2023/02/27 00:37:22;;;;;;;14.30;12.97;;;-1.70;81.70;;;;;;4976902;28;20259;-87
2023/02/27 00:39:49;;;;;;;14.87;13.03;;;-1.70;81.60;;;;;;4978037;28;20218;-88
2023/02/27 00:42:14;;;;;;;14.07;12.67;;;-1.80;81.70;;;;;;4976939;28;20554;-87
2023/02/27 00:44:40;;;;;;;14.83;13.53;;;-1.80;81.80;;;;;;4976848;28;20213;-87
2023/02/27 00:47:06;;;;;;;14.50;13.27;;;-1.80;81.80;;;;;;4994055;28;20218;-87
2023/02/27 00:49:32;;;;;;;13.60;12.40;;;-1.80;81.80;;;;;;4977114;28;20185;-87
2023/02/27 00:51:57;;;;;;;15.03;13.53;;;-1.80;81.70;;;;;;4976688;28;20186;-87
2023/02/27 00:54:23;;;;;;;15.33;13.07;;;-1.70;81.90;;;;;;4976727;28;20631;-87
2023/02/27 00:56:48;;;;;;;14.33;12.97;;;-1.70;81.80;;;;;;4994165;28;20220;-87
2023/02/27 00:59:14;;;;;;;14.53;13.07;;;-1.70;81.80;;;;;;4976644;28;20179;-87
2023/02/27 01:01:39;;;;;;;14.10;12.73;;;-1.80;81.80;;;;;;4993898;28;20641;-87
2023/02/27 01:04:05;;;;;;;13.23;11.80;;;-1.80;81.90;;;;;;4976492;28;20188;-87
2023/02/27 01:06:31;;;;;;;14.20;12.67;;;-1.70;81.90;;;;;;4976395;28;20248;-87
2023/02/27 01:08:56;;;;;;;13.40;12.37;;;-1.80;81.90;;;;;;4994110;28;20182;-87
2023/02/27 01:11:22;;;;;;;13.37;12.27;;;-1.80;82.00;;;;;;4976586;28;20264;-87
2023/02/27 01:13:47;;;;;;;13.37;12.17;;;-1.80;82.20;;;;;;4976563;28;20177;-88
2023/02/27 01:16:13;;;;;;;13.87;12.47;;;-1.80;82.10;;;;;;4993815;28;20203;-88
2023/02/27 01:18:39;;;;;;;13.97;12.67;;;-1.90;82.10;;;;;;4993783;28;20273;-88
2023/02/27 01:21:05;;;;;;;17.10;13.10;;;-1.90;82.10;;;;;;4976418;28;20182;-88
2023/02/27 01:23:30;;;;;;;12.90;11.60;;;-2.00;82.20;;;;;;4976409;28;20178;-88
2023/02/27 01:25:56;;;;;;;14.47;12.93;;;-2.00;82.50;;;;;;4976199;28;20219;-88
2023/02/27 01:28:22;;;;;;;13.67;12.00;;;-1.90;82.80;;;;;;4993771;28;20175;-88
2023/02/27 01:30:47;;;;;;;12.80;11.70;;;-1.90;82.80;;;;;;4977215;28;20198;-88
2023/02/27 01:33:13;;;;;;;13.63;12.50;;;-1.90;82.80;;;;;;4994896;28;20203;-87
2023/02/27 01:35:39;;;;;;;12.57;11.37;;;-1.90;82.70;;;;;;4976287;28;20179;-87
2023/02/27 01:38:04;;;;;;;12.67;11.50;;;-1.90;82.70;;;;;;4976489;28;20203;-87
2023/02/27 01:40:37;;;;;;;15.07;12.13;;;-1.90;82.70;;;;;;4993735;28;20208;-87
2023/02/27 01:43:04;;;;;;;13.50;12.13;;;-1.80;82.60;;;;;;4993703;28;20240;-87
2023/02/27 01:45:41;;;;;;;16.57;12.83;;;-1.80;82.60;;;;;;4976010;28;20672;-87
2023/02/27 01:48:33;;;;;;;14.57;13.23;;;-1.70;82.80;;;;;;4976173;28;20175;-87
2023/02/27 01:51:04;;;;;;;14.27;11.67;;;-1.80;82.60;;;;;;4976539;28;20625;-87
2023/02/27 01:53:33;;;;;;;12.30;10.93;;;-1.70;82.70;;;;;;4976552;28;20173;-87
2023/02/27 01:56:09;;;;;;;13.17;11.60;;;-1.70;82.70;;;;;;4993371;28;20202;-86
2023/02/27 01:58:34;;;;;;;13.20;11.83;;;-1.80;82.70;;;;;;4976162;28;20201;-87
2023/02/27 02:01:00;;;;;;;12.70;11.60;;;-1.90;83.00;;;;;;4976114;28;20690;-87
2023/02/27 02:03:38;;;;;;;14.27;12.47;;;-1.90;83.00;;;;;;4978147;28;20190;-87
2023/02/27 02:06:05;;;;;;;12.27;11.17;;;-1.90;83.20;;;;;;4979460;28;20213;-87
2023/02/27 02:08:35;;;;;;;12.77;11.63;;;-1.90;83.20;;;;;;4979685;28;20277;-87
2023/02/27 02:11:02;;;;;;;13.50;12.20;;;-1.90;83.30;;;;;;4979467;28;20180;-87
2023/02/27 02:13:28;;;;;;;13.73;12.33;;;-1.80;83.50;;;;;;4979697;28;20599;-87
2023/02/27 02:16:15;;;;;;;13.80;12.17;;;-1.70;83.80;;;;;;4979461;28;20202;-86
2023/02/27 02:19:08;;;;;;;11.87;10.63;;;-1.70;83.80;;;;;;4979484;28;20201;-86
2023/02/27 02:22:14;;;;;;;11.80;10.63;;;-1.70;83.80;;;;;;4979607;28;20633;-87
2023/02/27 02:25:27;;;;;;;13.83;11.13;;;-1.60;84.00;;;;;;4979547;28;20171;-86
2023/02/27 02:28:22;;;;;;;17.43;11.13;;;-1.50;84.20;;;;;;4979313;28;20236;-87
2023/02/27 02:31:19;;;;;;;12.67;10.80;;;-1.40;84.30;;;;;;4979189;28;20170;-87
2023/02/27 02:33:57;;;;;;;12.63;11.43;;;-1.30;84.20;;;;;;4979183;28;20168;-87
2023/02/27 02:37:08;;;;;;;14.40;10.50;;;-1.30;84.10;;;;;;4979026;28;20200;-87
2023/02/27 02:39:40;;;;;;;10.90;9.90;;;-1.30;84.00;;;;;;4996837;28;20170;-87
2023/02/27 02:42:24;;;;;;;13.40;10.37;;;-1.30;83.90;;;;;;4979055;28;20184;-87
2023/02/27 02:45:09;;;;;;;14.43;10.43;;;-1.40;83.80;;;;;;4978986;28;20176;-87
2023/02/27 02:48:08;;;;;;;11.50;10.23;;;-1.50;83.70;;;;;;4979152;28;20210;-87
2023/02/27 02:50:54;;;;;;;12.63;10.43;;;-1.50;83.80;;;;;;4972818;28;20610;-87
2023/02/27 02:53:45;;;;;;;14.43;11.47;;;-1.60;83.90;;;;;;4996507;28;20234;-87
2023/02/27 02:56:46;;;;;;;14.53;11.47;;;-1.60;84.10;;;;;;4996156;28;20196;-87
2023/02/27 02:59:18;;;;;;;13.03;11.33;;;-1.70;84.20;;;;;;4996116;28;20562;-87
2023/02/27 03:02:10;;;;;;;12.87;10.87;;;-1.90;84.20;;;;;;4979143;28;20167;-87
2023/02/27 03:05:00;;;;;;;11.87;10.67;;;-2.00;84.40;;;;;;4978780;28;20182;-87
2023/02/27 03:07:41;;;;;;;11.77;9.93;;;-2.00;84.50;;;;;;4978460;28;20641;-87
2023/02/27 03:10:13;;;;;;;10.37;9.33;;;-2.10;84.50;;;;;;4978521;28;20166;-87
2023/02/27 03:12:43;;;;;;;10.87;9.80;;;-2.10;84.50;;;;;;4978503;28;20177;-86
2023/02/27 03:15:18;;;;;;;10.13;9.13;;;-2.10;84.60;;;;;;4977205;28;20174;-86
2023/02/27 03:18:02;;;;;;;10.60;9.67;;;-2.10;84.50;;;;;;4978391;28;20192;-87
2023/02/27 03:20:34;;;;;;;10.73;9.73;;;-2.20;84.50;;;;;;4978462;28;20565;-87
2023/02/27 03:23:05;;;;;;;10.67;9.40;;;-2.20;84.50;;;;;;4978428;28;20171;-87
2023/02/27 03:25:33;;;;;;;10.17;9.17;;;-2.20;84.50;;;;;;4978078;28;20220;-86
2023/02/27 03:28:12;;;;;;;12.73;9.93;;;-2.30;84.20;;;;;;4978173;28;20628;-87
2023/02/27 03:31:04;;;;;;;10.77;9.87;;;-2.30;84.20;;;;;;4979059;28;20158;-87
2023/02/27 03:33:35;;;;;;;11.53;9.93;;;-2.40;84.30;;;;;;4978145;28;20167;-87
2023/02/27 03:36:25;;;;;;;10.80;9.73;;;-2.40;84.30;;;;;;4978022;28;20205;-87
2023/02/27 03:38:55;;;;;;;10.73;9.27;;;-2.40;84.30;;;;;;4977927;28;20664;-87
2023/02/27 03:41:29;;;;;;;10.73;9.33;;;-2.50;84.20;;;;;;4978257;28;20213;-87
2023/02/27 03:44:04;;;;;;;10.53;9.50;;;-2.60;84.20;;;;;;4995495;28;20169;-87
2023/02/27 03:46:30;;;;;;;11.13;10.03;;;-2.60;84.20;;;;;;4977829;28;20267;-87
2023/02/27 03:48:56;;;;;;;10.97;9.87;;;-2.60;84.10;;;;;;4977875;28;20192;-87
2023/02/27 03:51:23;;;;;;;12.17;10.97;;;-2.60;84.10;;;;;;4995534;28;20701;-87
2023/02/27 03:53:58;;;;;;;16.40;10.70;;;-2.50;84.20;;;;;;4977848;28;20170;-87
2023/02/27 03:56:30;;;;;;;14.50;11.13;;;-2.50;84.00;;;;;;4977677;28;20265;-87
2023/02/27 03:58:57;;;;;;;11.33;10.33;;;-2.60;83.90;;;;;;4995200;28;20186;-87
2023/02/27 04:01:22;;;;;;;11.13;10.13;;;-2.60;83.90;;;;;;4978243;28;20185;-87
2023/02/27 04:04:02;;;;;;;12.37;11.13;;;-2.60;83.90;;;;;;4977629;28;20183;-87
2023/02/27 04:09:32;;;;;;;12.57;10.83;;;-2.70;83.80;;;;;;4995489;28;20164;-86
2023/02/27 04:12:10;;;;;;;11.73;10.73;;;-2.70;83.80;;;;;;4977601;28;20248;-87
2023/02/27 04:14:51;;;;;;;12.53;10.70;;;-2.70;83.70;;;;;;4977402;28;20181;-87
2023/02/27 04:17:24;;;;;;;11.03;9.93;;;-2.80;83.80;;;;;;4977443;28;20209;-87
2023/02/27 04:20:16;;;;;;;15.43;10.43;;;-2.80;83.80;;;;;;4977647;28;20167;-87
2023/02/27 04:22:58;;;;;;;11.30;10.20;;;-2.80;83.90;;;;;;4995015;28;20527;-87
2023/02/27 04:25:44;;;;;;;14.87;11.80;;;-2.80;83.80;;;;;;4994052;28;20162;-87
2023/02/27 04:28:12;;;;;;;11.93;10.70;;;-2.90;83.80;;;;;;4976508;28;20189;-86
2023/02/27 04:30:56;;;;;;;11.50;10.53;;;-2.90;83.90;;;;;;4994422;28;20177;-87
2023/02/27 04:33:34;;;;;;;10.20;9.20;;;-2.90;84.00;;;;;;4977128;28;20638;-86
2023/02/27 04:36:21;;;;;;;17.00;10.53;;;-2.90;84.00;;;;;;4977650;28;20295;-87
2023/02/27 04:38:56;;;;;;;15.30;13.80;;;-2.90;84.00;;;;;;4977881;28;20217;-86
2023/02/27 04:41:31;;;;;;;14.60;13.33;;;-2.90;84.00;;;;;;4977164;28;20592;-86
2023/02/27 04:43:58;;;;;;;14.73;13.43;;;-2.90;84.10;;;;;;4977422;28;20223;-86
2023/02/27 04:46:27;;;;;;;13.00;11.90;;;-2.90;84.20;;;;;;4994213;28;20217;-87
2023/02/27 04:49:02;;;;;;;13.47;12.17;;;-2.90;84.30;;;;;;4977708;28;20181;-86
2023/02/27 04:51:34;;;;;;;13.97;12.53;;;-2.90;84.30;;;;;;4977133;28;20253;-86
2023/02/27 04:54:09;;;;;;;12.13;11.13;;;-3.00;84.30;;;;;;4976883;28;20617;-87
2023/02/27 04:56:43;;;;;;;14.60;12.00;;;-3.00;84.40;;;;;;4976832;28;20223;-87
2023/02/27 04:59:18;;;;;;;12.33;11.10;;;-3.00;84.40;;;;;;4976748;28;20188;-87
2023/02/27 05:01:54;;;;;;;13.10;11.77;;;-3.00;84.50;;;;;;4976889;28;20198;-86
2023/02/27 05:04:23;;;;;;;14.93;11.83;;;-3.00;84.50;;;;;;4976862;28;20174;-87
2023/02/27 05:06:52;;;;;;;12.03;10.93;;;-3.00;84.50;;;;;;4976847;28;20223;-86
2023/02/27 05:09:39;;;;;;;11.50;10.40;;;-3.10;84.40;;;;;;4976762;28;20187;-87
2023/02/27 05:12:19;;;;;;;15.43;12.03;;;-3.10;84.40;;;;;;4994007;28;20178;-87
2023/02/27 05:14:55;;;;;;;13.63;12.43;;;-3.10;84.30;;;;;;4976743;28;20175;-86
2023/02/27 05:17:27;;;;;;;15.43;13.97;;;-3.10;84.20;;;;;;4976766;28;20779;-87
2023/02/27 05:19:53;;;;;;;12.20;11.10;;;-3.20;84.30;;;;;;4976572;28;20180;-87
2023/02/27 05:22:23;;;;;;;12.27;11.47;;;-3.20;84.30;;;;;;4994032;28;20182;-87
2023/02/27 05:25:06;;;;;;;15.17;13.80;;;-3.20;84.20;;;;;;4976574;28;20235;-86
2023/02/27 05:27:45;;;;;;;13.77;12.77;;;-3.20;84.20;;;;;;4976684;28;20340;-86
2023/02/27 05:30:36;;;;;;;13.30;12.20;;;-3.20;84.20;;;;;;4976708;28;20208;-86
2023/02/27 05:33:06;;;;;;;12.67;11.47;;;-3.20;84.20;;;;;;4976718;28;20178;-86
2023/02/27 05:35:41;;;;;;;12.43;10.83;;;-3.30;84.20;;;;;;4977174;28;20185;-86
2023/02/27 05:38:30;;;;;;;11.70;10.60;;;-3.20;84.30;;;;;;4978006;28;20170;-86
2023/02/27 05:41:02;;;;;;;11.70;10.63;;;-3.20;84.40;;;;;;4965883;28;20634;-86
2023/02/27 05:43:32;;;;;;;14.20;11.07;;;-3.20;84.40;;;;;;4980509;28;20261;-87
2023/02/27 05:46:10;;;;;;;12.40;11.20;;;-3.20;84.50;;;;;;4980657;28;20217;-86
2023/02/27 05:48:41;;;;;;;13.20;12.00;;;-3.20;84.60;;;;;;4980663;28;20177;-86
2023/02/27 05:51:08;;;;;;;13.93;11.37;;;-3.10;84.60;;;;;;4997946;28;20165;-86
2023/02/27 05:53:40;;;;;;;17.57;10.20;;;-3.10;84.60;;;;;;4980616;28;20181;-86
2023/02/27 05:56:07;;;;;;;11.93;10.93;;;-3.10;84.60;;;;;;4981169;28;20239;-86
2023/02/27 05:58:42;;;;;;;12.07;10.87;;;-3.20;84.60;;;;;;4997402;28;20660;-86
2023/02/27 06:01:09;;;;;;;12.83;11.63;;;-3.10;84.60;;;;;;4979926;28;20260;-86
2023/02/27 06:03:36;;;;;;;12.37;11.17;;;-3.20;84.50;;;;;;4979850;28;20679;-87
2023/02/27 06:06:08;;;;;;;13.43;12.10;;;-3.20;84.60;;;;;;4979673;28;20206;-86
2023/02/27 06:08:34;;;;;;;12.70;11.27;;;-3.30;84.60;;;;;;4997319;28;20533;-86
2023/02/27 06:10:59;;;;;;;15.53;12.57;;;-3.30;84.60;;;;;;4979786;28;20169;-85
2023/02/27 06:13:25;;;;;;;13.67;12.47;;;-3.30;84.60;;;;;;4979713;28;20242;-86
2023/02/27 06:15:51;;;;;;;14.70;13.27;;;-3.30;84.70;;;;;;4979571;28;20252;-86
2023/02/27 06:18:18;;;;;;;14.03;12.67;;;-3.20;84.70;;;;;;4979568;28;20653;-86
2023/02/27 06:20:45;;;;;;;13.50;12.30;;;-3.30;84.70;;;;;;4979584;28;20190;-86
2023/02/27 06:23:11;;;;;;;14.53;12.77;;;-3.20;84.80;;;;;;4979564;28;20654;-86
2023/02/27 06:25:37;;;;;;;14.87;13.33;;;-3.20;84.80;;;;;;4979716;28;20219;-86
2023/02/27 06:28:03;;;;;;;18.47;13.60;;;-3.20;84.90;;;;;;4997115;28;20169;-87
2023/02/27 06:30:29;;;;;;;12.60;11.60;;;-3.10;85.20;;;;;;4979418;28;20274;-87
2023/02/27 06:32:54;;;;;;;13.13;11.80;;;-3.20;85.10;;;;;;4979243;28;20192;-86
2023/02/27 06:35:20;;;;;;;13.87;11.27;;;-3.10;85.20;;;;;;4979806;28;20185;-85
2023/02/27 06:37:46;;;;;;;12.23;10.93;;;-3.20;85.20;;;;;;4979132;28;20689;-86
2023/02/27 06:40:12;;;;;;;11.47;10.37;;;-3.30;85.10;;;;;;4979237;28;20243;-86
2023/02/27 06:42:39;;;;;;;12.87;11.53;;;-3.30;85.10;;;;;;4979274;28;20224;-86
2023/02/27 06:45:06;;;;;;;14.47;12.27;;;-3.30;85.20;;;;;;4996676;28;20179;-86
2023/02/27 06:47:31;;;;;;;13.47;12.37;;;-3.30;85.20;;;;;;4996503;28;20245;-86
2023/02/27 06:49:57;;;;;;;18.43;12.57;;;-3.20;85.40;;;;;;4996228;28;20212;-86
2023/02/27 06:52:22;;;;;;;22.77;15.03;;;-3.20;85.50;;;;;;4979011;28;20200;-86
2023/02/27 06:54:48;;;;;;;15.47;13.97;;;-2.90;86.00;;;;;;4978861;28;20184;-87
2023/02/27 06:57:14;;;;;;;15.90;14.00;;;-2.80;86.30;;;;;;4978627;28;20263;-87
2023/02/27 06:59:40;;;;;;;19.63;13.70;;;-2.80;86.30;;;;;;4979030;28;20268;-86
2023/02/27 07:02:06;;;;;;;21.23;13.10;;;-2.80;86.20;;;;;;4996216;28;20173;-87
2023/02/27 07:04:31;;;;;;;15.50;13.83;;;-2.80;86.30;;;;;;4978792;28;20544;-86
2023/02/27 07:06:58;;;;;;;14.97;13.47;;;-2.60;86.70;;;;;;4978652;28;20680;-86
2023/02/27 07:09:24;;;;;;;21.30;15.07;;;-2.40;87.10;;;;;;4978662;28;20210;-86
2023/02/27 07:11:49;;;;;;;20.80;14.77;;;-2.20;87.40;;;;;;4978903;28;20703;-87
2023/02/27 07:14:15;;;;;;;22.60;13.23;;;-2.10;87.70;;;;;;4978556;28;20268;-87
2023/02/27 07:16:41;;;;;;;20.33;14.90;;;-2.00;87.90;;;;;;4978368;28;20240;-87
2023/02/27 07:19:07;;;;;;;19.57;14.17;;;-1.90;88.20;;;;;;4978435;28;20663;-87
2023/02/27 07:21:32;;;;;;;19.23;12.97;;;-1.80;88.50;;;;;;4978543;28;20231;-87
2023/02/27 07:23:58;;;;;;;21.63;13.97;;;-1.70;88.70;;;;;;4995905;28;20666;-87
2023/02/27 07:26:24;;;;;;;17.80;12.17;;;-1.60;88.90;;;;;;4995574;28;20210;-87
2023/02/27 07:28:49;;;;;;;16.10;12.23;;;-1.60;89.00;;;;;;4978502;28;20181;-85
2023/02/27 07:31:15;;;;;;;17.13;11.73;;;-1.60;89.10;;;;;;4978205;28;20644;-87
2023/02/27 07:33:40;;;;;;;18.73;13.30;;;-1.60;89.20;;;;;;4978544;28;20221;-87
2023/02/27 07:36:06;;;;;;;14.10;12.60;;;-1.60;89.50;;;;;;4978283;28;20297;-87
2023/02/27 07:38:32;;;;;;;21.10;12.73;;;-1.40;89.70;;;;;;4995655;28;20212;-86
2023/02/27 07:40:57;;;;;;;17.87;13.23;;;-1.20;89.90;;;;;;4979116;28;20544;-87
2023/02/27 07:43:24;;;;;;;19.00;13.70;;;-1.10;90.00;;;;;;4995487;28;20280;-88
2023/02/27 07:45:50;;;;;;;17.93;13.20;;;-1.00;90.20;;;;;;4978079;28;20213;-88
2023/02/27 07:48:17;;;;;;;26.53;14.10;;;-0.90;90.20;;;;;;4977905;28;20529;-88
2023/02/27 07:50:42;;;;;;;15.13;13.40;;;-0.80;90.30;;;;;;4977840;28;20170;-88
2023/02/27 07:53:08;;;;;;;18.37;13.97;;;-0.70;90.40;;;;;;4995280;28;20257;-88
2023/02/27 07:55:34;;;;;;;16.60;14.30;;;-0.60;90.40;;;;;;4995290;28;20195;-88
2023/02/27 07:57:59;;;;;;;21.17;15.17;;;-0.60;90.40;;;;;;4977889;28;20193;-88
2023/02/27 08:00:25;;;;;;;16.33;14.60;;;-0.60;90.50;;;;;;4977508;28;20174;-86
2023/02/27 08:02:50;;;;;;;20.00;15.43;;;-0.40;90.60;;;;;;4977957;28;20604;-86
2023/02/27 08:05:16;;;;;;;22.63;15.63;;;-0.30;90.60;;;;;;4978044;28;20210;-88
2023/02/27 08:07:42;;;;;;;17.90;15.93;;;-0.20;90.60;;;;;;4977998;28;20240;-89
2023/02/27 08:10:08;;;;;;;18.47;14.27;;;-0.10;90.60;;;;;;4977849;28;20191;-89
2023/02/27 08:12:33;;;;;;;20.30;15.03;;;0.00;90.60;;;;;;4977466;28;20292;-89
2023/02/27 08:14:59;;;;;;;22.67;16.20;;;0.00;90.60;;;;;;4994948;28;20701;-89
2023/02/27 08:17:25;;;;;;;19.57;13.83;;;0.00;90.60;;;;;;4995054;28;20197;-88
2023/02/27 08:19:50;;;;;;;18.20;14.47;;;0.00;90.50;;;;;;4978692;28;20180;-87
2023/02/27 08:22:16;;;;;;;16.60;14.47;;;0.10;90.60;;;;;;4977982;28;20210;-87
2023/02/27 08:24:41;;;;;;;20.23;14.57;;;0.30;90.60;;;;;;4977748;28;20177;-87
2023/02/27 08:27:07;;;;;;;22.77;14.27;;;0.30;90.50;;;;;;4977867;28;20222;-88
2023/02/27 08:29:33;;;;;;;18.67;14.90;;;0.40;90.50;;;;;;4977682;28;20191;-88
2023/02/27 08:32:00;;;;;;;19.60;13.07;;;0.40;90.40;;;;;;4978455;28;20693;-87
2023/02/27 08:34:26;;;;;;;14.97;13.67;;;0.60;90.40;;;;;;4977226;28;20608;-88
2023/02/27 08:36:52;;;;;;;19.67;14.00;;;0.70;90.30;;;;;;4994652;28;20229;-88
2023/02/27 08:39:19;;;;;;;15.97;14.27;;;0.80;90.30;;;;;;4977642;28;20577;-89
2023/02/27 08:41:44;;;;;;;16.37;13.20;;;0.90;90.20;;;;;;4994743;28;20201;-88
2023/02/27 08:44:11;;;;;;;19.63;14.40;;;1.00;90.10;;;;;;4977358;28;20700;-88
2023/02/27 08:46:36;;;;;;;15.33;13.83;;;1.10;89.90;;;;;;4977632;28;20628;-88
2023/02/27 08:49:02;;;;;;;17.37;14.00;;;1.20;89.80;;;;;;4977415;28;20228;-87
2023/02/27 08:51:28;;;;;;;22.80;13.90;;;1.30;89.90;;;;;;4977585;28;20185;-88
2023/02/27 08:53:57;;;;;;;19.13;15.50;;;1.40;89.80;;;;;;4977442;28;20174;-88
2023/02/27 08:56:23;;;;;;;16.50;14.00;;;1.40;89.80;;;;;;4978351;28;20217;-87
2023/02/27 08:58:49;;;;;;;15.80;14.13;;;1.50;89.70;;;;;;4995110;28;20162;-87
2023/02/27 09:01:14;;;;;;;17.63;13.70;;;1.60;89.70;;;;;;4977402;28;20537;-87
2023/02/27 09:03:40;;;;;;;18.97;13.53;;;1.70;89.70;;;;;;4994996;28;20706;-87
2023/02/27 09:06:05;;;;;;;17.50;13.13;;;1.70;89.50;;;;;;4977068;28;20217;-87
2023/02/27 09:08:31;;;;;;;16.03;14.27;;;1.80;89.60;;;;;;4977210;28;20656;-87
2023/02/27 09:10:57;;;;;;;20.23;15.03;;;1.90;89.50;;;;;;4977442;28;20181;-87
2023/02/27 09:13:22;;;;;;;19.73;14.90;;;1.90;89.40;;;;;;4977118;28;20265;-87
2023/02/27 09:15:48;;;;;;;15.53;12.93;;;2.10;89.40;;;;;;4994331;28;20224;-87
2023/02/27 09:18:13;;;;;;;18.13;13.53;;;2.20;89.30;;;;;;4977050;28;20707;-87
2023/02/27 09:20:40;;;;;;;15.50;13.77;;;2.30;89.20;;;;;;4977334;28;20187;-87
2023/02/27 09:23:06;;;;;;;14.70;13.33;;;2.50;89.00;;;;;;4994586;28;20632;-87
2023/02/27 09:25:32;;;;;;;14.17;12.13;;;2.60;88.60;;;;;;4976926;28;20185;-86
2023/02/27 09:27:57;;;;;;;17.07;13.27;;;2.70;88.20;;;;;;5000229;28;20184;-88
2023/02/27 09:30:24;;;;;;;18.77;12.57;;;2.80;87.90;;;;;;4981980;28;20273;-87
2023/02/27 09:32:49;;;;;;;15.60;12.63;;;2.90;87.60;;;;;;4998882;28;20324;-87
2023/02/27 09:35:15;;;;;;;14.40;12.20;;;3.00;87.50;;;;;;4977416;28;20293;-87
2023/02/27 09:37:44;;;;;;;18.00;11.77;;;3.20;87.20;;;;;;4977202;28;20201;-88
2023/02/27 09:40:25;;;;;;;13.80;12.13;;;3.30;86.90;;;;;;4977479;28;20632;-87
2023/02/27 09:42:52;;;;;;;17.27;11.73;;;3.40;86.10;;;;;;4978138;28;20174;-87
2023/02/27 09:45:24;;;;;;;13.20;11.93;;;3.40;85.70;;;;;;4977159;28;20183;-87
2023/02/27 09:48:05;;;;;;;15.73;12.07;;;3.60;85.10;;;;;;4977036;28;20191;-87
2023/02/27 09:50:41;;;;;;;16.37;12.63;;;3.70;84.50;;;;;;4976772;28;20174;-88
2023/02/27 09:53:30;;;;;;;14.27;12.63;;;3.80;84.40;;;;;;4994413;28;20635;-87
2023/02/27 09:56:07;;;;;;;13.20;11.90;;;4.10;84.60;;;;;;4978384;28;20213;-88
2023/02/27 09:58:54;;;;;;;18.27;12.67;;;4.30;84.00;;;;;;4995689;28;20233;-88
2023/02/27 10:01:26;;;;;;;18.43;12.63;;;4.30;82.60;;;;;;4979578;28;20169;-87
2023/02/27 10:04:10;;;;;;;16.13;12.57;;;4.30;82.50;;;;;;4984533;28;20168;-87
2023/02/27 10:06:48;;;;;;;20.30;13.30;;;4.40;81.50;;;;;;4977745;28;20206;-86
2023/02/27 10:09:38;;;;;;;16.60;13.10;;;4.60;81.50;;;;;;4979773;28;20204;-88
2023/02/27 10:12:41;;;;;;;17.27;15.57;;;4.70;81.00;;;;;;4977165;28;20663;-90
2023/02/27 10:15:29;;;;;;;15.93;12.30;;;4.90;80.60;;;;;;5005241;28;20164;-90
2023/02/27 10:17:59;;;;;;;18.53;12.83;;;5.00;80.20;;;;;;5004289;28;20162;-90
2023/02/27 10:20:33;;;;;;;15.23;13.73;;;5.20;79.20;;;;;;4986374;28;20181;-89
2023/02/27 10:23:03;;;;;;;19.17;13.47;;;5.40;79.70;;;;;;4987372;28;20171;-90
2023/02/27 10:25:32;;;;;;;15.50;13.90;;;5.30;78.40;;;;;;5007641;28;20644;-90
2023/02/27 10:28:09;;;;;;;17.30;13.40;;;5.50;79.20;;;;;;4994672;28;20184;-90
2023/02/27 10:30:35;;;;;;;14.40;13.20;;;5.60;78.70;;;;;;4999012;28;20185;-90
2023/02/27 10:33:26;;;;;;;16.13;14.70;;;5.60;77.60;;;;;;5014475;28;20189;-87
2023/02/27 10:35:52;;;;;;;16.37;15.10;;;5.40;74.30;;;;;;4993219;28;20201;-90
2023/02/27 10:38:38;;;;;;;16.43;15.03;;;5.20;73.40;;;;;;5012430;28;20166;-87
2023/02/27 10:41:06;;;;;;;16.23;14.60;;;5.20;73.50;;;;;;4994552;28;20163;-90
2023/02/27 10:43:32;;;;;;;15.90;14.47;;;5.10;73.50;;;;;;4992150;28;20566;-91
2023/02/27 10:46:02;;;;;;;16.33;14.80;;;5.00;72.80;;;;;;4994044;28;20229;-88
2023/02/27 10:48:30;;;;;;;16.80;14.97;;;5.10;73.60;;;;;;5011340;28;20181;-90
2023/02/27 10:51:20;;;;;;;19.27;14.53;;;5.00;74.20;;;;;;5009230;28;20235;-90
2023/02/27 10:53:46;;;;;;;15.80;14.33;;;5.10;74.70;;;;;;4992380;28;20177;-87
2023/02/27 10:56:24;;;;;;;15.67;14.07;;;5.20;75.60;;;;;;5008398;28;20201;-88
2023/02/27 10:59:18;;;;;;;14.77;13.30;;;5.30;75.20;;;;;;4996354;28;20205;-88
2023/02/27 11:01:53;;;;;;;16.20;14.53;;;5.30;73.10;;;;;;4996576;28;20189;-90
2023/02/27 11:04:36;;;;;;;15.10;13.90;;;5.30;72.70;;;;;;4997218;28;20173;-90
2023/02/27 11:07:05;;;;;;;15.53;14.23;;;5.20;71.60;;;;;;4993779;28;20209;-90
2023/02/27 11:09:32;;;;;;;16.13;13.80;;;5.30;72.40;;;;;;4996352;28;20265;-89
2023/02/27 11:12:32;;;;;;;13.77;12.33;;;5.30;72.00;;;;;;4991419;28;20194;-88
2023/02/27 11:15:01;;;;;;;70.40;15.50;;;5.40;71.70;;;;;;4978618;28;20685;-89
2023/02/27 11:17:33;;;;;;;15.83;14.60;;;5.60;71.90;;;;;;4979183;28;20547;-91
2023/02/27 11:20:01;;;;;;;17.27;15.60;;;5.70;71.30;;;;;;4981976;28;20170;-91
2023/02/27 11:22:30;;;;;;;15.53;14.03;;;5.70;70.30;;;;;;4990247;28;20212;-90
2023/02/27 11:25:29;;;;;;;17.10;14.43;;;5.70;69.80;;;;;;4992781;28;20576;-90
2023/02/27 11:28:27;;;;;;;15.37;14.07;;;5.80;69.70;;;;;;4942070;28;20195;-90
2023/02/27 11:31:00;;;;;;;15.57;14.17;;;5.80;70.30;;;;;;4995587;28;20248;-89
2023/02/27 11:33:28;;;;;;;16.30;14.80;;;5.70;69.30;;;;;;4996619;28;20190;-89
2023/02/27 11:43:49;;;;;;;15.53;14.23;;;5.60;70.20;;;;;;5427866;23;20220;-89
2023/02/27 11:46:20;;;;;;;14.50;13.40;;;5.60;70.60;;;;;;5012849;28;20216;-90
2023/02/27 11:48:50;;;;;;;15.00;13.70;;;5.60;70.50;;;;;;5011026;28;20235;-91
2023/02/27 11:51:31;;;;;;;15.07;13.87;;;5.60;70.00;;;;;;5035342;28;20177;-90
2023/02/27 11:54:27;;;;;;;17.03;15.27;;;5.60;69.50;;;;;;5018930;28;20165;-90
2023/02/27 11:57:03;;;;;;;16.20;14.60;;;5.70;71.10;;;;;;5015998;28;20208;-90
2023/02/27 11:59:42;;;;;;;16.43;14.83;;;5.60;69.90;;;;;;5015586;28;20196;-90
2023/02/27 12:02:22;;;;;;;17.03;15.70;;;5.60;69.00;;;;;;5016312;28;20172;-90
2023/02/27 12:05:11;;;;;;;16.10;14.50;;;5.70;69.90;;;;;;5032927;28;20165;-90
2023/02/27 12:07:47;;;;;;;15.70;14.40;;;5.70;70.10;;;;;;4998143;28;20641;-90
2023/02/27 12:10:18;;;;;;;15.70;14.43;;;5.60;70.00;;;;;;5022676;28;20160;-90
2023/02/27 12:13:10;;;;;;;16.03;14.73;;;5.60;69.60;;;;;;5018439;28;20176;-90
2023/02/27 12:15:43;;;;;;;18.10;14.73;;;5.60;69.60;;;;;;5014077;28;20177;-89
2023/02/27 12:18:20;;;;;;;21.63;15.30;;;5.60;69.30;;;;;;5021084;28;20166;-90
2023/02/27 12:20:59;;;;;;;16.67;15.03;;;5.70;69.10;;;;;;4997187;28;20264;-89
2023/02/27 12:23:45;;;;;;;16.37;14.77;;;5.80;68.30;;;;;;5011179;28;20180;-91
2023/02/27 12:26:23;;;;;;;16.63;15.40;;;5.90;68.40;;;;;;5001716;28;20208;-90
2023/02/27 12:29:18;;;;;;;17.63;16.00;;;5.90;67.20;;;;;;5017731;28;20157;-91
2023/02/27 12:32:21;;;;;;;16.47;14.97;;;6.00;66.70;;;;;;5001320;28;20180;-91
2023/02/27 12:35:09;;;;;;;16.40;15.17;;;6.00;66.60;;;;;;5017737;28;20192;-90
2023/02/27 12:37:36;;;;;;;18.07;16.63;;;6.10;67.60;;;;;;4999741;28;20197;-90
2023/02/27 12:40:08;;;;;;;17.30;15.60;;;6.20;66.50;;;;;;4998719;28;20259;-91
2023/02/27 12:42:41;;;;;;;16.97;15.67;;;6.30;66.20;;;;;;4999200;28;21094;-91
2023/02/27 12:45:19;;;;;;;17.83;16.47;;;6.40;65.10;;;;;;5017531;28;20166;-91
2023/02/27 12:48:16;;;;;;;17.33;15.37;;;6.30;65.20;;;;;;5002221;28;20205;-89
2023/02/27 12:51:11;;;;;;;16.97;15.67;;;6.20;65.70;;;;;;4998295;28;20170;-90
2023/02/27 12:53:53;;;;;;;17.13;15.70;;;6.30;66.60;;;;;;5001260;28;20165;-88
2023/02/27 12:56:21;;;;;;;16.50;15.30;;;6.40;67.00;;;;;;4996736;28;20660;-91
2023/02/27 12:59:05;;;;;;;18.80;16.50;;;6.30;66.80;;;;;;4999985;28;20177;-90
2023/02/27 13:01:56;;;;;;;17.43;15.77;;;6.30;66.50;;;;;;5000829;28;20265;-91
2023/02/27 13:04:39;;;;;;;15.73;14.37;;;6.30;67.60;;;;;;4998684;28;20570;-90
2023/02/27 13:07:17;;;;;;;16.70;15.03;;;6.20;68.20;;;;;;5000320;28;20215;-89
2023/02/27 13:10:01;;;;;;;16.90;15.50;;;6.10;68.10;;;;;;5001339;28;20643;-91